createdAt,value
2019-04-03T00:02:18.233Z,15.67
2019-04-03T00:04:47.000Z,15.47
2019-04-03T00:07:15.819Z,16.07
2019-04-03T00:09:44.578Z,14.95
2019-04-03T00:12:13.417Z,14.70
2019-04-03T00:14:42.940Z,16.10
2019-04-03T00:17:13.582Z,14.97
2019-04-03T00:19:42.674Z,15.43
2019-04-03T00:22:11.501Z,12.57
2019-04-03T00:24:40.297Z,13.30
2019-04-03T00:27:09.121Z,12.93
2019-04-03T00:29:37.865Z,14.30
2019-04-03T00:32:06.765Z,14.58
2019-04-03T00:34:35.734Z,12.80
2019-04-03T00:37:04.514Z,14.10
2019-04-03T00:39:33.276Z,14.17
2019-04-03T00:42:02.039Z,17.50
2019-04-03T00:44:30.974Z,16.27
2019-04-03T00:46:59.818Z,14.17
2019-04-03T00:49:28.693Z,14.63
2019-04-03T00:51:58.071Z,15.90
2019-04-03T00:54:27.151Z,16.37
2019-04-03T00:56:56.532Z,15.30
2019-04-03T00:59:26.333Z,14.05
2019-04-03T01:01:56.475Z,13.90
2019-04-03T01:04:28.309Z,14.63
2019-04-03T01:06:56.812Z,16.53
2019-04-03T01:09:29.228Z,15.05
2019-04-03T01:11:58.809Z,12.67
2019-04-03T01:14:28.074Z,15.23
2019-04-03T01:16:56.912Z,13.63
2019-04-03T01:19:27.543Z,16.07
2019-04-03T01:21:56.319Z,15.40
2019-04-03T01:24:25.086Z,16.57
2019-04-03T01:26:53.866Z,17.13
2019-04-03T01:29:22.634Z,18.00
2019-04-03T01:31:51.455Z,19.73
2019-04-03T01:34:20.219Z,16.30
2019-04-03T01:36:49.181Z,15.00
2019-04-03T01:39:19.143Z,17.80
2019-04-03T01:41:51.078Z,15.63
2019-04-03T01:44:19.135Z,17.10
2019-04-03T01:46:47.903Z,17.67
2019-04-03T01:49:16.657Z,15.03
2019-04-03T01:51:45.402Z,15.83
2019-04-03T01:54:14.172Z,15.48
2019-04-03T01:56:42.932Z,15.97
2019-04-03T01:59:11.806Z,17.40
2019-04-03T02:01:40.815Z,13.83
2019-04-03T02:04:12.222Z,15.03
2019-04-03T02:06:40.186Z,16.43
2019-04-03T02:09:11.093Z,14.07
2019-04-03T02:11:40.114Z,14.67
2019-04-03T02:14:09.102Z,15.57
2019-04-03T02:16:38.071Z,16.20
2019-04-03T02:19:06.836Z,13.53
2019-04-03T02:21:35.594Z,13.20
2019-04-03T02:24:04.354Z,13.47
2019-04-03T02:26:33.131Z,13.62
2019-04-03T02:29:04.289Z,13.60
2019-04-03T02:31:32.380Z,13.93
2019-04-03T02:34:02.248Z,15.10
2019-04-03T02:36:32.374Z,15.80
2019-04-03T02:39:01.115Z,12.83
2019-04-03T02:41:29.908Z,13.57
2019-04-03T02:43:59.541Z,13.40
2019-04-03T02:46:28.921Z,15.80
2019-04-03T02:48:58.070Z,11.88
2019-04-03T02:51:27.084Z,11.70
2019-04-03T02:53:55.921Z,14.63
2019-04-03T02:56:24.872Z,13.13
2019-04-03T02:58:54.975Z,13.10
2019-04-03T03:01:24.296Z,13.17
2019-04-03T03:03:53.483Z,12.88
2019-04-03T03:06:22.332Z,13.27
2019-04-03T03:08:52.335Z,14.57
2019-04-03T03:11:24.541Z,14.33
2019-04-03T03:13:53.254Z,12.90
2019-04-03T03:16:22.847Z,12.25
2019-04-03T03:18:52.095Z,12.00
2019-04-03T03:21:21.511Z,13.57
2019-04-03T03:23:51.208Z,12.88
2019-04-03T03:26:22.370Z,12.47
2019-04-03T03:28:52.046Z,12.03
2019-04-03T03:31:44.361Z,11.80
2019-04-03T03:33:53.118Z,11.87
2019-04-03T03:36:25.599Z,13.75
2019-04-03T03:38:55.367Z,13.00
2019-04-03T03:41:24.821Z,12.43
2019-04-03T03:43:55.407Z,12.80
2019-04-03T03:46:27.845Z,14.60
2019-04-03T03:48:55.879Z,16.23
2019-04-03T03:51:24.844Z,15.93
2019-04-03T03:53:54.111Z,17.33
2019-04-03T03:56:23.746Z,15.47
2019-04-03T03:58:53.198Z,14.95
2019-04-03T04:01:23.192Z,16.10
2019-04-03T04:03:52.399Z,14.23
2019-04-03T04:06:21.444Z,15.37
2019-04-03T04:08:50.567Z,13.18
2019-04-03T04:11:20.281Z,16.27
2019-04-03T04:13:50.541Z,14.75
2019-04-03T04:16:19.742Z,17.17
2019-04-03T04:18:49.360Z,13.47
2019-04-03T04:21:18.451Z,19.03
2019-04-03T04:23:47.752Z,18.40
2019-04-03T04:26:17.083Z,17.57
2019-04-03T04:28:52.651Z,15.67
2019-04-03T04:31:21.766Z,16.60
2019-04-03T04:33:50.700Z,15.33
2019-04-03T04:36:19.573Z,16.62
2019-04-03T04:38:48.551Z,12.93
2019-04-03T04:41:17.546Z,14.30
2019-04-03T04:43:46.418Z,13.60
2019-04-03T04:46:16.167Z,14.90
2019-04-03T04:48:44.945Z,12.97
2019-04-03T04:51:13.837Z,13.27
2019-04-03T04:53:42.565Z,14.23
2019-04-03T04:56:11.338Z,20.50
2019-04-03T04:58:42.340Z,14.18
2019-04-03T05:01:10.573Z,12.97
2019-04-03T05:03:39.318Z,12.27
2019-04-03T05:06:08.070Z,13.43
2019-04-03T05:08:36.898Z,11.63
2019-04-03T05:11:07.560Z,12.67
2019-04-03T05:13:38.163Z,12.17
2019-04-03T05:16:06.973Z,10.87
2019-04-03T05:18:36.206Z,10.77
2019-04-03T05:21:05.270Z,12.57
2019-04-03T05:23:34.182Z,12.73
2019-04-03T05:26:03.038Z,11.77
2019-04-03T05:28:34.032Z,11.53
2019-04-03T05:31:02.327Z,10.07
2019-04-03T05:33:31.141Z,10.37
2019-04-03T05:36:00.249Z,9.90
2019-04-03T05:38:29.012Z,11.70
2019-04-03T05:40:59.402Z,10.48
2019-04-03T05:43:30.391Z,9.23
2019-04-03T05:45:59.035Z,8.77
2019-04-03T05:48:28.146Z,8.57
2019-04-03T05:50:58.127Z,8.87
2019-04-03T05:53:27.575Z,9.73
2019-04-03T05:55:56.338Z,9.63
2019-04-03T05:58:25.307Z,8.03
2019-04-03T06:01:04.522Z,9.53
2019-04-03T06:03:37.953Z,12.07
2019-04-03T06:05:57.542Z,11.60
2019-04-03T06:08:26.322Z,7.60
2019-04-03T06:10:55.081Z,11.90
2019-04-03T06:13:23.829Z,10.57
2019-04-03T06:15:53.567Z,7.77
2019-04-03T06:18:25.631Z,8.50
2019-04-03T06:20:53.849Z,8.93
2019-04-03T06:23:24.083Z,8.30
2019-04-03T06:25:52.851Z,8.43
2019-04-03T06:28:21.590Z,8.27
2019-04-03T06:30:50.602Z,8.00
2019-04-03T06:33:19.514Z,8.30
2019-04-03T06:35:48.746Z,8.43
2019-04-03T06:38:17.608Z,7.97
2019-04-03T06:40:46.444Z,7.07
2019-04-03T06:43:16.922Z,7.50
2019-04-03T06:45:45.766Z,8.17
2019-04-03T06:48:14.516Z,9.90
2019-04-03T06:50:43.260Z,9.03
2019-04-03T06:53:12.014Z,9.13
2019-04-03T06:55:40.778Z,11.10
2019-04-03T06:58:11.422Z,9.13
2019-04-03T07:00:40.037Z,9.53
2019-04-03T07:03:08.804Z,9.03
2019-04-03T07:05:37.567Z,7.87
2019-04-03T07:08:06.429Z,10.57
2019-04-03T07:10:36.596Z,9.47
2019-04-03T07:13:07.434Z,10.08
2019-04-03T07:15:36.271Z,9.70
2019-04-03T07:18:06.499Z,9.30
2019-04-03T07:20:35.518Z,9.40
2019-04-03T07:23:04.565Z,9.40
2019-04-03T07:25:33.946Z,10.73
2019-04-03T07:28:03.534Z,10.70
2019-04-03T07:30:32.284Z,9.67
2019-04-03T07:33:01.189Z,9.60
2019-04-03T07:35:30.452Z,12.67
2019-04-03T07:37:59.326Z,9.03
2019-04-03T07:40:28.189Z,9.67
2019-04-03T07:42:57.110Z,11.50
2019-04-03T07:45:25.962Z,10.33
2019-04-03T07:47:54.752Z,9.15
2019-04-03T07:50:23.574Z,9.00
2019-04-03T07:52:52.352Z,10.63
2019-04-03T07:55:22.137Z,6.73
2019-04-03T07:57:51.773Z,7.15
2019-04-03T08:00:20.998Z,6.00
2019-04-03T08:02:50.231Z,7.27
2019-04-03T08:05:19.119Z,7.07
2019-04-03T08:07:48.060Z,7.37
2019-04-03T08:10:17.317Z,7.30
2019-04-03T08:12:46.329Z,8.40
2019-04-03T08:15:15.153Z,8.17
2019-04-03T08:17:43.896Z,2.57
2019-04-03T08:20:13.030Z,1.93
2019-04-03T08:22:41.791Z,1.30
2019-04-03T08:25:11.807Z,0.80
2019-04-03T08:27:41.355Z,1.53
2019-04-03T08:30:12.221Z,3.00
2019-04-03T08:32:40.962Z,0.83
2019-04-03T08:35:20.516Z,0.95
2019-04-03T08:37:42.249Z,0.90
2019-04-03T08:40:12.067Z,1.40
2019-04-03T08:42:40.817Z,0.70
2019-04-03T08:45:10.599Z,1.03
2019-04-03T08:47:39.417Z,0.80
2019-04-03T08:50:10.464Z,0.70
2019-04-03T08:52:39.668Z,0.57
2019-04-03T08:55:12.937Z,1.33
2019-04-03T08:57:40.233Z,0.40
2019-04-03T09:00:11.305Z,0.60
2019-04-03T09:02:42.655Z,0.43
2019-04-03T09:05:13.652Z,0.60
2019-04-03T09:07:41.823Z,1.05
2019-04-03T09:10:12.485Z,1.53
2019-04-03T09:12:41.286Z,0.45
2019-04-03T09:15:11.363Z,0.40
2019-04-03T09:17:40.327Z,0.40
2019-04-03T09:20:12.863Z,2.43
2019-04-03T09:22:40.918Z,0.53
2019-04-03T09:25:13.081Z,0.63
2019-04-03T09:27:41.280Z,0.70
2019-04-03T09:30:15.476Z,0.40
2019-04-03T09:32:43.433Z,0.40
2019-04-03T09:35:12.504Z,0.50
2019-04-03T09:37:41.491Z,0.40
2019-04-03T09:40:10.878Z,1.13
2019-04-03T09:42:39.638Z,1.77
2019-04-03T09:45:09.270Z,1.60
2019-04-03T09:47:38.326Z,0.67
2019-04-03T09:50:07.938Z,0.30
2019-04-03T09:52:42.368Z,0.47
2019-04-03T09:55:08.339Z,0.95
2019-04-03T09:57:37.367Z,0.60
2019-04-03T10:00:09.900Z,1.10
2019-04-03T10:02:38.090Z,1.20
2019-04-03T10:05:07.487Z,1.60
2019-04-03T10:07:37.211Z,0.67
2019-04-03T10:10:07.202Z,0.90
2019-04-03T10:12:36.363Z,1.57
2019-04-03T10:15:07.461Z,1.00
2019-04-03T10:17:37.454Z,1.77
2019-04-03T10:20:07.770Z,4.00
2019-04-03T10:22:37.387Z,1.67
2019-04-03T10:25:07.147Z,1.07
2019-04-03T10:27:35.926Z,0.80
2019-04-03T10:30:06.624Z,1.63
2019-04-03T10:32:35.613Z,0.97
2019-04-03T10:35:05.131Z,1.10
2019-04-03T10:37:35.567Z,0.70
2019-04-03T10:40:05.228Z,1.75
2019-04-03T10:42:33.986Z,0.50
2019-04-03T10:45:02.922Z,0.93
2019-04-03T10:47:41.278Z,0.60
2019-04-03T10:50:04.894Z,1.30
2019-04-03T10:52:32.986Z,0.90
2019-04-03T10:55:01.743Z,1.10
2019-04-03T10:57:33.202Z,0.47
2019-04-03T11:00:01.084Z,1.43
2019-04-03T11:02:29.915Z,0.63
2019-04-03T11:05:00.501Z,1.20
2019-04-03T11:07:29.279Z,1.07
2019-04-03T11:09:58.057Z,0.97
2019-04-03T11:12:26.877Z,0.50
2019-04-03T11:14:55.624Z,1.20
2019-04-03T11:17:26.072Z,0.60
2019-04-03T11:19:54.973Z,1.57
2019-04-03T11:22:25.602Z,1.30
2019-04-03T11:24:54.366Z,1.30
2019-04-03T11:27:29.057Z,1.00
2019-04-03T11:29:53.885Z,1.50
2019-04-03T11:32:23.636Z,0.90
2019-04-03T11:34:53.985Z,1.40
2019-04-03T11:37:23.321Z,1.87
2019-04-03T11:40:02.466Z,1.82
2019-04-03T11:42:27.149Z,1.43
2019-04-03T11:44:55.190Z,0.80
2019-04-03T11:47:26.825Z,1.10
2019-04-03T11:49:55.895Z,1.02
2019-04-03T11:52:26.524Z,2.30
2019-04-03T11:54:57.564Z,1.80
2019-04-03T11:57:30.999Z,1.43
2019-04-03T12:00:01.108Z,1.40
2019-04-03T12:02:29.849Z,1.50
2019-04-03T12:04:59.175Z,2.57
2019-04-03T12:07:36.258Z,1.77
2019-04-03T12:10:06.060Z,1.50
2019-04-03T12:12:35.361Z,2.50
2019-04-03T12:15:05.762Z,3.00
2019-04-03T12:17:35.963Z,1.87
2019-04-03T12:20:06.533Z,1.70
2019-04-03T12:22:36.346Z,2.63
2019-04-03T12:25:08.370Z,2.43
2019-04-03T12:27:38.169Z,1.85
2019-04-03T12:30:11.554Z,1.87
2019-04-03T12:32:46.971Z,1.90
2019-04-03T12:35:11.743Z,2.00
2019-04-03T12:37:41.960Z,1.70
2019-04-03T12:40:11.593Z,1.93
2019-04-03T12:42:40.553Z,2.17
2019-04-03T12:45:40.419Z,2.20
2019-04-03T12:48:20.186Z,2.27
2019-04-03T12:50:49.122Z,2.70
2019-04-03T12:53:23.978Z,2.70
2019-04-03T12:56:03.249Z,2.25
2019-04-03T12:58:32.324Z,2.60
2019-04-03T13:01:02.665Z,2.40
2019-04-03T13:03:31.995Z,2.30
2019-04-03T13:06:00.826Z,2.73
2019-04-03T13:08:29.967Z,3.23
2019-04-03T13:10:59.466Z,3.23
2019-04-03T13:13:28.877Z,2.50
2019-04-03T13:16:02.775Z,2.97
2019-04-03T13:18:52.183Z,3.67
2019-04-03T13:21:25.025Z,2.92
2019-04-03T13:23:54.019Z,3.20
2019-04-03T13:26:24.792Z,2.60
2019-04-03T13:28:53.522Z,3.23
2019-04-03T13:31:23.008Z,4.40
2019-04-03T13:33:52.298Z,2.60
2019-04-03T13:36:23.766Z,2.67
2019-04-03T13:38:51.849Z,2.83
2019-04-03T13:41:22.443Z,3.67
2019-04-03T13:43:53.900Z,2.73
2019-04-03T13:46:22.244Z,3.70
2019-04-03T13:48:51.354Z,3.27
2019-04-03T13:51:21.031Z,3.50
2019-04-03T13:53:50.950Z,2.90
2019-04-03T13:56:23.116Z,3.27
2019-04-03T13:58:54.054Z,2.85
2019-04-03T14:01:21.558Z,3.70
2019-04-03T14:03:51.444Z,13.30
2019-04-03T14:06:20.923Z,4.03
2019-04-03T14:08:49.882Z,5.50
2019-04-03T14:11:18.868Z,4.20
2019-04-03T14:13:48.376Z,5.23
2019-04-03T14:16:21.504Z,4.00
2019-04-03T14:18:49.978Z,4.47
2019-04-03T14:21:18.858Z,4.70
2019-04-03T14:23:47.991Z,4.30
2019-04-03T14:26:17.162Z,3.83
2019-04-03T14:28:46.334Z,4.20
2019-04-03T14:31:17.053Z,4.50
2019-04-03T14:33:46.991Z,4.33
2019-04-03T14:36:18.714Z,3.93
2019-04-03T14:38:46.980Z,6.47
2019-04-03T14:41:19.046Z,3.97
2019-04-03T14:43:46.416Z,4.63
2019-04-03T14:46:17.441Z,4.73
2019-04-03T14:48:45.878Z,5.00
2019-04-03T14:51:15.317Z,6.57
2019-04-03T14:53:44.410Z,5.70
2019-04-03T14:56:13.778Z,5.50
2019-04-03T14:58:42.745Z,5.57
2019-04-03T15:01:11.870Z,6.00
2019-04-03T15:03:40.701Z,6.12
2019-04-03T15:06:09.551Z,5.80
2019-04-03T15:08:38.345Z,7.60
2019-04-03T15:11:09.933Z,5.67
2019-04-03T15:13:40.112Z,7.72
2019-04-03T15:16:08.938Z,5.30
2019-04-03T15:18:38.052Z,5.33
2019-04-03T15:21:07.044Z,6.20
2019-04-03T15:23:40.173Z,3.87
2019-04-03T15:26:06.350Z,3.73
2019-04-03T15:28:36.302Z,3.93
2019-04-03T15:31:05.397Z,3.30
2019-04-03T15:33:34.366Z,4.10
2019-04-03T15:36:04.811Z,2.60
2019-04-03T15:38:34.017Z,2.00
2019-04-03T15:41:02.828Z,3.17
2019-04-03T15:43:31.600Z,2.40
2019-04-03T15:46:00.739Z,2.93
2019-04-03T15:48:30.305Z,1.77
2019-04-03T15:51:02.020Z,2.80
2019-04-03T15:53:36.290Z,3.23
2019-04-03T15:56:13.520Z,2.37
2019-04-03T15:58:44.788Z,2.43
2019-04-03T16:01:13.793Z,1.72
2019-04-03T16:03:43.328Z,2.43
2019-04-03T16:06:13.869Z,1.80
2019-04-03T16:08:44.939Z,2.73
2019-04-03T16:11:14.976Z,2.45
2019-04-03T16:13:44.813Z,3.07
2019-04-03T16:16:18.905Z,1.73
2019-04-03T16:18:47.922Z,1.37
2019-04-03T16:21:16.739Z,2.63
2019-04-03T16:23:45.847Z,10.43
2019-04-03T16:26:14.946Z,2.53
2019-04-03T16:28:44.216Z,1.63
2019-04-03T16:31:13.257Z,2.90
2019-04-03T16:33:42.182Z,2.60
2019-04-03T16:36:11.128Z,2.87
2019-04-03T16:38:40.402Z,2.30
2019-04-03T16:41:10.957Z,1.87
2019-04-03T16:43:41.402Z,4.92
2019-04-03T16:46:11.504Z,6.23
2019-04-03T16:48:41.126Z,2.60
2019-04-03T16:51:10.082Z,2.70
2019-04-03T16:53:39.476Z,4.57
2019-04-03T16:56:08.882Z,2.30
2019-04-03T16:58:38.188Z,4.63
2019-04-03T17:01:07.721Z,2.90
2019-04-03T17:03:36.578Z,3.20
2019-04-03T17:06:05.422Z,5.23
2019-04-03T17:08:34.256Z,2.07
2019-04-03T17:11:03.418Z,3.55
2019-04-03T17:13:32.247Z,2.43
2019-04-03T17:16:01.002Z,1.20
2019-04-03T17:18:29.742Z,1.47
2019-04-03T17:20:58.497Z,3.00
2019-04-03T17:23:27.785Z,2.65
2019-04-03T17:25:56.845Z,2.93
2019-04-03T17:28:26.668Z,1.47
2019-04-03T17:30:55.972Z,1.10
2019-04-03T17:33:24.745Z,1.22
2019-04-03T17:35:53.526Z,2.47
2019-04-03T17:38:22.894Z,1.85
2019-04-03T17:40:51.815Z,2.20
2019-04-03T17:43:20.674Z,2.40
2019-04-03T17:45:49.461Z,3.65
2019-04-03T17:48:18.256Z,5.73
2019-04-03T17:50:47.004Z,3.05
2019-04-03T17:53:15.762Z,2.00
2019-04-03T17:55:47.005Z,2.40
2019-04-03T17:58:16.942Z,13.17
2019-04-03T18:00:46.350Z,1.60
2019-04-03T18:03:15.202Z,3.67
2019-04-03T18:05:43.978Z,4.20
2019-04-03T18:08:12.937Z,5.07
2019-04-03T18:10:46.463Z,2.93
2019-04-03T18:13:15.648Z,2.10
2019-04-03T18:15:44.494Z,5.37
2019-04-03T18:18:13.453Z,3.00
2019-04-03T18:20:53.677Z,5.97
2019-04-03T18:23:44.058Z,3.65
2019-04-03T18:26:15.283Z,3.93
2019-04-03T18:28:52.004Z,3.30
2019-04-03T18:31:33.618Z,4.37
2019-04-03T18:34:10.318Z,1.70
2019-04-03T18:36:39.088Z,3.07
2019-04-03T18:39:09.718Z,7.60
2019-04-03T18:41:39.032Z,4.13
2019-04-03T18:44:07.816Z,6.37
2019-04-03T18:46:36.983Z,8.10
2019-04-03T18:49:05.940Z,1.70
2019-04-03T18:51:36.838Z,4.03
2019-04-03T18:54:05.405Z,15.73
2019-04-03T18:56:34.148Z,9.80
2019-04-03T18:59:03.084Z,7.33
2019-04-03T19:01:32.542Z,4.40
2019-04-03T19:04:02.441Z,3.70
2019-04-03T19:06:31.411Z,1.90
2019-04-03T19:09:09.807Z,2.80
2019-04-03T19:11:34.416Z,5.60
2019-04-03T19:14:02.998Z,3.00
2019-04-03T19:16:43.595Z,3.60
2019-04-03T19:19:07.992Z,7.10
2019-04-03T19:21:32.989Z,11.43
2019-04-03T19:24:01.754Z,2.80
2019-04-03T19:26:31.777Z,3.37
2019-04-03T19:29:01.159Z,6.37
2019-04-03T19:31:30.103Z,3.47
2019-04-03T19:33:58.845Z,2.87
2019-04-03T19:36:29.493Z,2.33
2019-04-03T19:38:58.549Z,1.82
2019-04-03T19:41:27.409Z,18.27
2019-04-03T19:44:00.524Z,2.33
2019-04-03T19:46:27.857Z,2.63
2019-04-03T19:48:57.427Z,2.50
2019-04-03T19:51:26.223Z,2.02
2019-04-03T19:53:59.446Z,2.23
2019-04-03T19:56:25.964Z,2.93
2019-04-03T19:58:55.313Z,1.50
2019-04-03T20:01:24.691Z,2.37
2019-04-03T20:03:53.520Z,1.77
2019-04-03T20:06:22.826Z,2.65
2019-04-03T20:08:52.366Z,2.10
2019-04-03T20:11:21.139Z,2.43
2019-04-03T20:13:49.903Z,2.20
2019-04-03T20:16:18.683Z,3.77
2019-04-03T20:18:47.650Z,3.08
2019-04-03T20:21:16.910Z,3.27
2019-04-03T20:23:48.420Z,2.63
2019-04-03T20:26:16.541Z,3.73
2019-04-03T20:28:46.123Z,2.60
2019-04-03T20:31:15.045Z,10.27
2019-04-03T20:33:44.661Z,8.83
2019-04-03T20:36:16.470Z,4.50
2019-04-03T20:38:44.114Z,3.03
2019-04-03T20:41:12.870Z,2.70
2019-04-03T20:43:43.244Z,2.30
2019-04-03T20:46:12.124Z,2.60
2019-04-03T20:48:41.060Z,2.70
2019-04-03T20:51:09.832Z,2.80
2019-04-03T20:53:38.643Z,3.03
2019-04-03T20:56:07.484Z,2.60
2019-04-03T20:58:36.257Z,4.10
2019-04-03T21:01:07.206Z,2.80
2019-04-03T21:03:35.945Z,4.43
2019-04-03T21:06:04.924Z,4.53
2019-04-03T21:08:34.300Z,2.70
2019-04-03T21:11:03.388Z,3.70
2019-04-03T21:13:33.414Z,3.77
2019-04-03T21:16:03.350Z,2.80
2019-04-03T21:18:32.094Z,3.30
2019-04-03T21:21:01.609Z,4.13
2019-04-03T21:23:33.262Z,5.42
2019-04-03T21:26:01.174Z,5.07
2019-04-03T21:28:30.207Z,4.33
2019-04-03T21:30:59.043Z,4.27
2019-04-03T21:33:30.513Z,3.50
2019-04-03T21:35:59.994Z,4.00
2019-04-03T21:38:32.738Z,3.20
2019-04-03T21:41:01.925Z,3.63
2019-04-03T21:43:30.780Z,3.83
2019-04-03T21:46:00.156Z,2.60
2019-04-03T21:48:29.132Z,3.60
2019-04-03T21:50:58.167Z,3.58
2019-04-03T21:53:26.975Z,3.20
2019-04-03T21:55:55.801Z,3.00
2019-04-03T21:58:24.557Z,3.53
2019-04-03T22:01:22.360Z,4.13
2019-04-03T22:03:51.754Z,3.27
2019-04-03T22:06:20.914Z,3.40
2019-04-03T22:08:51.500Z,3.27
2019-04-03T22:11:20.607Z,4.43
2019-04-03T22:13:50.682Z,4.60
2019-04-03T22:16:20.315Z,3.90
2019-04-03T22:18:49.422Z,3.80
2019-04-03T22:21:18.249Z,4.62
2019-04-03T22:23:46.997Z,3.80
2019-04-03T22:26:17.358Z,4.33
2019-04-03T22:28:46.533Z,4.33
2019-04-03T22:31:15.534Z,4.53
2019-04-03T22:33:44.363Z,5.10
2019-04-03T22:36:13.173Z,4.30
2019-04-03T22:38:41.934Z,4.33
2019-04-03T22:41:12.791Z,4.57
2019-04-03T22:43:41.470Z,5.00
2019-04-03T22:46:10.215Z,5.03
2019-04-03T22:48:38.974Z,5.63
2019-04-03T22:51:08.773Z,7.23
2019-04-03T22:53:39.898Z,5.25
2019-04-03T22:56:09.843Z,5.20
2019-04-03T22:58:38.675Z,4.10
2019-04-03T23:01:07.610Z,4.53
2019-04-03T23:03:36.470Z,5.87
2019-04-03T23:06:05.297Z,4.00
2019-04-03T23:08:34.041Z,5.23
2019-04-03T23:11:03.340Z,4.50
2019-04-03T23:13:32.077Z,5.67
2019-04-03T23:16:00.843Z,6.90
2019-04-03T23:18:29.587Z,6.53
2019-04-03T23:20:58.402Z,5.10
2019-04-03T23:23:27.638Z,6.20
2019-04-03T23:25:56.593Z,6.33
2019-04-03T23:28:25.346Z,7.47
2019-04-03T23:30:54.100Z,6.50
2019-04-03T23:33:22.846Z,6.25
2019-04-03T23:35:51.630Z,6.30
2019-04-03T23:38:20.433Z,7.12
2019-04-03T23:40:49.190Z,5.63
2019-04-03T23:43:19.515Z,8.20
2019-04-03T23:45:48.277Z,6.60
2019-04-03T23:48:18.245Z,7.47
2019-04-03T23:50:47.756Z,6.58
2019-04-03T23:53:16.510Z,8.03
2019-04-03T23:55:45.274Z,6.15
2019-04-03T23:58:14.102Z,7.43
